sensor_id;sensor_type;location;lat;lon;timestamp;temperature;humidity
53748;DHT22;39655;53.210;5.768;2023-10-31T00:02:08;10.20;96.30
53748;DHT22;39655;53.210;5.768;2023-10-31T00:04:34;10.20;96.30
53748;DHT22;39655;53.210;5.768;2023-10-31T00:06:59;10.10;96.40
53748;DHT22;39655;53.210;5.768;2023-10-31T00:09:25;10.10;96.40
53748;DHT22;39655;53.210;5.768;2023-10-31T00:11:50;10.10;96.40
53748;DHT22;39655;53.210;5.768;2023-10-31T00:14:16;10.10;96.40
53748;DHT22;39655;53.210;5.768;2023-10-31T00:16:42;10.10;96.40
53748;DHT22;39655;53.210;5.768;2023-10-31T00:19:07;10.10;96.40
53748;DHT22;39655;53.210;5.768;2023-10-31T00:21:33;10.10;96.40
53748;DHT22;39655;53.210;5.768;2023-10-31T00:23:59;10.10;96.40
53748;DHT22;39655;53.210;5.768;2023-10-31T00:26:24;10.10;96.50
53748;DHT22;39655;53.210;5.768;2023-10-31T00:28:50;10.10;96.50
53748;DHT22;39655;53.210;5.768;2023-10-31T00:31:15;10.20;96.60
53748;DHT22;39655;53.210;5.768;2023-10-31T00:33:41;10.20;96.70
53748;DHT22;39655;53.210;5.768;2023-10-31T00:36:07;10.20;96.60
53748;DHT22;39655;53.210;5.768;2023-10-31T00:38:33;10.20;96.70
53748;DHT22;39655;53.210;5.768;2023-10-31T00:40:59;10.30;96.70
53748;DHT22;39655;53.210;5.768;2023-10-31T00:43:25;10.30;96.70
53748;DHT22;39655;53.210;5.768;2023-10-31T00:45:50;10.30;96.70
53748;DHT22;39655;53.210;5.768;2023-10-31T00:48:16;10.30;96.80
53748;DHT22;39655;53.210;5.768;2023-10-31T00:50:41;10.40;96.90
53748;DHT22;39655;53.210;5.768;2023-10-31T00:53:07;10.30;96.80
53748;DHT22;39655;53.210;5.768;2023-10-31T00:55:33;10.30;96.80
53748;DHT22;39655;53.210;5.768;2023-10-31T00:57:59;10.20;96.80
53748;DHT22;39655;53.210;5.768;2023-10-31T01:00:24;10.20;96.80
53748;DHT22;39655;53.210;5.768;2023-10-31T01:02:50;10.30;97.10
53748;DHT22;39655;53.210;5.768;2023-10-31T01:05:16;10.30;97.00
53748;DHT22;39655;53.210;5.768;2023-10-31T01:07:42;10.20;97.00
53748;DHT22;39655;53.210;5.768;2023-10-31T01:10:08;10.20;97.10
53748;DHT22;39655;53.210;5.768;2023-10-31T01:12:33;10.20;97.10
53748;DHT22;39655;53.210;5.768;2023-10-31T01:14:59;10.20;97.20
53748;DHT22;39655;53.210;5.768;2023-10-31T01:17:25;10.10;97.20
53748;DHT22;39655;53.210;5.768;2023-10-31T01:19:51;10.10;97.30
53748;DHT22;39655;53.210;5.768;2023-10-31T01:22:16;10.10;97.40
53748;DHT22;39655;53.210;5.768;2023-10-31T01:24:42;10.10;97.40
53748;DHT22;39655;53.210;5.768;2023-10-31T01:27:07;10.20;97.50
53748;DHT22;39655;53.210;5.768;2023-10-31T01:29:33;10.10;97.50
53748;DHT22;39655;53.210;5.768;2023-10-31T01:31:59;10.10;97.60
53748;DHT22;39655;53.210;5.768;2023-10-31T01:34:24;10.10;97.60
53748;DHT22;39655;53.210;5.768;2023-10-31T01:36:50;10.10;97.60
53748;DHT22;39655;53.210;5.768;2023-10-31T01:39:16;10.10;97.70
53748;DHT22;39655;53.210;5.768;2023-10-31T01:41:42;10.10;97.70
53748;DHT22;39655;53.210;5.768;2023-10-31T01:44:09;10.10;97.70
53748;DHT22;39655;53.210;5.768;2023-10-31T01:46:34;10.10;97.80
53748;DHT22;39655;53.210;5.768;2023-10-31T01:49:00;10.00;97.80
53748;DHT22;39655;53.210;5.768;2023-10-31T01:51:26;10.00;97.80
53748;DHT22;39655;53.210;5.768;2023-10-31T01:53:52;10.00;97.80
53748;DHT22;39655;53.210;5.768;2023-10-31T01:56:19;10.10;97.90
53748;DHT22;39655;53.210;5.768;2023-10-31T01:58:45;10.10;98.00
53748;DHT22;39655;53.210;5.768;2023-10-31T02:01:12;10.10;97.90
53748;DHT22;39655;53.210;5.768;2023-10-31T02:03:38;10.00;97.90
53748;DHT22;39655;53.210;5.768;2023-10-31T02:06:04;10.10;98.00
53748;DHT22;39655;53.210;5.768;2023-10-31T02:08:30;10.10;98.00
53748;DHT22;39655;53.210;5.768;2023-10-31T02:10:56;10.10;98.00
53748;DHT22;39655;53.210;5.768;2023-10-31T02:13:22;10.10;98.00
53748;DHT22;39655;53.210;5.768;2023-10-31T02:15:48;10.10;98.10
53748;DHT22;39655;53.210;5.768;2023-10-31T02:18:14;10.10;98.20
53748;DHT22;39655;53.210;5.768;2023-10-31T02:20:40;10.10;98.10
53748;DHT22;39655;53.210;5.768;2023-10-31T02:23:06;10.10;98.10
53748;DHT22;39655;53.210;5.768;2023-10-31T02:25:31;10.10;98.20
53748;DHT22;39655;53.210;5.768;2023-10-31T02:27:57;10.10;98.20
53748;DHT22;39655;53.210;5.768;2023-10-31T02:30:23;10.10;98.20
53748;DHT22;39655;53.210;5.768;2023-10-31T02:32:49;10.10;98.20
53748;DHT22;39655;53.210;5.768;2023-10-31T02:35:17;10.10;98.20
53748;DHT22;39655;53.210;5.768;2023-10-31T02:37:43;10.10;98.30
53748;DHT22;39655;53.210;5.768;2023-10-31T02:40:09;10.10;98.20
53748;DHT22;39655;53.210;5.768;2023-10-31T02:42:36;10.20;98.40
53748;DHT22;39655;53.210;5.768;2023-10-31T02:45:02;10.20;98.30
53748;DHT22;39655;53.210;5.768;2023-10-31T02:47:27;10.20;98.40
53748;DHT22;39655;53.210;5.768;2023-10-31T02:49:53;10.20;98.30
53748;DHT22;39655;53.210;5.768;2023-10-31T02:52:18;10.30;98.40
53748;DHT22;39655;53.210;5.768;2023-10-31T02:54:44;10.30;98.50
53748;DHT22;39655;53.210;5.768;2023-10-31T02:57:10;10.30;98.50
53748;DHT22;39655;53.210;5.768;2023-10-31T02:59:35;10.30;98.50
53748;DHT22;39655;53.210;5.768;2023-10-31T03:02:01;10.40;98.50
53748;DHT22;39655;53.210;5.768;2023-10-31T03:04:26;10.40;98.60
53748;DHT22;39655;53.210;5.768;2023-10-31T03:06:52;10.40;98.60
53748;DHT22;39655;53.210;5.768;2023-10-31T03:09:18;10.40;98.50
53748;DHT22;39655;53.210;5.768;2023-10-31T03:11:43;10.50;98.60
53748;DHT22;39655;53.210;5.768;2023-10-31T03:14:09;10.50;98.60
53748;DHT22;39655;53.210;5.768;2023-10-31T03:16:35;10.50;98.60
53748;DHT22;39655;53.210;5.768;2023-10-31T03:19:00;10.40;98.60
53748;DHT22;39655;53.210;5.768;2023-10-31T03:21:26;10.50;98.70
53748;DHT22;39655;53.210;5.768;2023-10-31T03:23:52;10.40;98.60
53748;DHT22;39655;53.210;5.768;2023-10-31T03:26:21;10.50;98.80
53748;DHT22;39655;53.210;5.768;2023-10-31T03:28:47;10.50;98.80
53748;DHT22;39655;53.210;5.768;2023-10-31T03:31:14;10.50;98.80
53748;DHT22;39655;53.210;5.768;2023-10-31T03:33:40;10.50;98.80
53748;DHT22;39655;53.210;5.768;2023-10-31T03:36:07;10.50;98.80
53748;DHT22;39655;53.210;5.768;2023-10-31T03:38:34;10.50;98.90
53748;DHT22;39655;53.210;5.768;2023-10-31T03:41:00;10.50;98.90
53748;DHT22;39655;53.210;5.768;2023-10-31T03:43:26;10.50;98.90
53748;DHT22;39655;53.210;5.768;2023-10-31T03:45:52;10.40;98.80
53748;DHT22;39655;53.210;5.768;2023-10-31T03:48:17;10.40;98.90
53748;DHT22;39655;53.210;5.768;2023-10-31T03:50:44;10.40;98.80
53748;DHT22;39655;53.210;5.768;2023-10-31T03:53:10;10.40;98.90
53748;DHT22;39655;53.210;5.768;2023-10-31T03:55:35;10.40;98.90
53748;DHT22;39655;53.210;5.768;2023-10-31T03:58:01;10.40;98.90
53748;DHT22;39655;53.210;5.768;2023-10-31T04:00:27;10.40;98.90
53748;DHT22;39655;53.210;5.768;2023-10-31T04:02:52;10.30;98.90
53748;DHT22;39655;53.210;5.768;2023-10-31T04:05:18;10.30;99.00
53748;DHT22;39655;53.210;5.768;2023-10-31T04:07:46;10.40;98.90
53748;DHT22;39655;53.210;5.768;2023-10-31T04:10:11;10.40;98.90
53748;DHT22;39655;53.210;5.768;2023-10-31T04:12:37;10.40;99.00
53748;DHT22;39655;53.210;5.768;2023-10-31T04:15:03;10.40;99.00
53748;DHT22;39655;53.210;5.768;2023-10-31T04:17:29;10.40;99.00
53748;DHT22;39655;53.210;5.768;2023-10-31T04:19:54;10.40;99.00
53748;DHT22;39655;53.210;5.768;2023-10-31T04:22:20;10.40;99.00
53748;DHT22;39655;53.210;5.768;2023-10-31T04:24:46;10.30;99.00
53748;DHT22;39655;53.210;5.768;2023-10-31T04:27:11;10.30;99.00
53748;DHT22;39655;53.210;5.768;2023-10-31T04:29:38;10.40;99.00
53748;DHT22;39655;53.210;5.768;2023-10-31T04:32:03;10.40;99.00
53748;DHT22;39655;53.210;5.768;2023-10-31T04:34:29;10.40;99.00
53748;DHT22;39655;53.210;5.768;2023-10-31T04:36:55;10.40;99.00
53748;DHT22;39655;53.210;5.768;2023-10-31T04:39:20;10.40;99.00
53748;DHT22;39655;53.210;5.768;2023-10-31T04:41:46;10.40;98.90
53748;DHT22;39655;53.210;5.768;2023-10-31T04:44:11;10.40;98.90
53748;DHT22;39655;53.210;5.768;2023-10-31T04:46:37;10.40;99.00
53748;DHT22;39655;53.210;5.768;2023-10-31T04:49:03;10.30;98.90
53748;DHT22;39655;53.210;5.768;2023-10-31T04:51:33;10.40;99.00
53748;DHT22;39655;53.210;5.768;2023-10-31T04:53:59;10.40;99.00
53748;DHT22;39655;53.210;5.768;2023-10-31T04:56:25;10.40;99.00
53748;DHT22;39655;53.210;5.768;2023-10-31T04:58:51;10.40;99.00
53748;DHT22;39655;53.210;5.768;2023-10-31T05:01:16;10.40;99.00
53748;DHT22;39655;53.210;5.768;2023-10-31T05:03:42;10.40;99.00
53748;DHT22;39655;53.210;5.768;2023-10-31T05:06:08;10.30;99.00
53748;DHT22;39655;53.210;5.768;2023-10-31T05:08:34;10.30;99.00
53748;DHT22;39655;53.210;5.768;2023-10-31T05:10:59;10.40;99.00
53748;DHT22;39655;53.210;5.768;2023-10-31T05:13:25;10.30;99.00
53748;DHT22;39655;53.210;5.768;2023-10-31T05:15:51;10.40;99.00
53748;DHT22;39655;53.210;5.768;2023-10-31T05:18:17;10.40;99.10
53748;DHT22;39655;53.210;5.768;2023-10-31T05:20:43;10.40;99.00
53748;DHT22;39655;53.210;5.768;2023-10-31T05:23:09;10.40;99.00
53748;DHT22;39655;53.210;5.768;2023-10-31T05:25:35;10.50;99.10
53748;DHT22;39655;53.210;5.768;2023-10-31T05:28:02;10.50;99.10
53748;DHT22;39655;53.210;5.768;2023-10-31T05:30:27;10.50;99.10
53748;DHT22;39655;53.210;5.768;2023-10-31T05:32:53;10.50;99.10
53748;DHT22;39655;53.210;5.768;2023-10-31T05:35:18;10.60;99.10
53748;DHT22;39655;53.210;5.768;2023-10-31T05:37:46;10.60;99.10
53748;DHT22;39655;53.210;5.768;2023-10-31T05:40:12;10.60;99.10
53748;DHT22;39655;53.210;5.768;2023-10-31T05:42:38;10.60;99.10
53748;DHT22;39655;53.210;5.768;2023-10-31T05:45:04;10.60;99.10
53748;DHT22;39655;53.210;5.768;2023-10-31T05:47:30;10.50;99.10
53748;DHT22;39655;53.210;5.768;2023-10-31T05:49:56;10.50;99.10
53748;DHT22;39655;53.210;5.768;2023-10-31T05:52:21;10.50;99.10
53748;DHT22;39655;53.210;5.768;2023-10-31T05:54:47;10.50;99.10
53748;DHT22;39655;53.210;5.768;2023-10-31T05:57:13;10.50;99.10
53748;DHT22;39655;53.210;5.768;2023-10-31T05:59:38;10.40;99.10
53748;DHT22;39655;53.210;5.768;2023-10-31T06:02:04;10.40;99.10
53748;DHT22;39655;53.210;5.768;2023-10-31T06:04:29;10.40;99.10
53748;DHT22;39655;53.210;5.768;2023-10-31T06:06:55;10.40;99.10
53748;DHT22;39655;53.210;5.768;2023-10-31T06:09:21;10.40;99.10
53748;DHT22;39655;53.210;5.768;2023-10-31T06:11:47;10.30;99.00
53748;DHT22;39655;53.210;5.768;2023-10-31T06:14:13;10.30;99.00
53748;DHT22;39655;53.210;5.768;2023-10-31T06:16:42;10.30;99.10
53748;DHT22;39655;53.210;5.768;2023-10-31T06:19:09;10.30;99.10
53748;DHT22;39655;53.210;5.768;2023-10-31T06:21:34;10.30;99.10
53748;DHT22;39655;53.210;5.768;2023-10-31T06:24:00;10.20;99.00
53748;DHT22;39655;53.210;5.768;2023-10-31T06:26:26;10.20;99.10
53748;DHT22;39655;53.210;5.768;2023-10-31T06:28:51;10.20;99.10
53748;DHT22;39655;53.210;5.768;2023-10-31T06:31:17;10.20;99.10
53748;DHT22;39655;53.210;5.768;2023-10-31T06:33:42;10.20;99.10
53748;DHT22;39655;53.210;5.768;2023-10-31T06:36:08;10.20;99.10
53748;DHT22;39655;53.210;5.768;2023-10-31T06:38:34;10.10;99.10
53748;DHT22;39655;53.210;5.768;2023-10-31T06:40:59;10.10;99.20
53748;DHT22;39655;53.210;5.768;2023-10-31T06:43:25;10.10;99.20
53748;DHT22;39655;53.210;5.768;2023-10-31T06:45:51;10.10;99.20
53748;DHT22;39655;53.210;5.768;2023-10-31T06:48:16;10.10;99.20
53748;DHT22;39655;53.210;5.768;2023-10-31T06:50:42;10.10;99.20
53748;DHT22;39655;53.210;5.768;2023-10-31T06:53:08;10.20;99.20
53748;DHT22;39655;53.210;5.768;2023-10-31T06:55:34;10.20;99.30
53748;DHT22;39655;53.210;5.768;2023-10-31T06:57:59;10.30;99.30
53748;DHT22;39655;53.210;5.768;2023-10-31T07:00:25;10.30;99.30
53748;DHT22;39655;53.210;5.768;2023-10-31T07:02:50;10.40;99.30
53748;DHT22;39655;53.210;5.768;2023-10-31T07:05:17;10.40;99.30
53748;DHT22;39655;53.210;5.768;2023-10-31T07:07:46;10.50;99.40
53748;DHT22;39655;53.210;5.768;2023-10-31T07:10:11;10.50;99.40
53748;DHT22;39655;53.210;5.768;2023-10-31T07:12:37;10.50;99.40
53748;DHT22;39655;53.210;5.768;2023-10-31T07:15:03;10.60;99.40
53748;DHT22;39655;53.210;5.768;2023-10-31T07:17:30;10.60;99.40
53748;DHT22;39655;53.210;5.768;2023-10-31T07:19:56;10.70;99.40
53748;DHT22;39655;53.210;5.768;2023-10-31T07:22:22;10.70;99.40
53748;DHT22;39655;53.210;5.768;2023-10-31T07:24:50;10.70;99.40
53748;DHT22;39655;53.210;5.768;2023-10-31T07:27:15;10.80;99.40
53748;DHT22;39655;53.210;5.768;2023-10-31T07:29:41;10.80;99.40
53748;DHT22;39655;53.210;5.768;2023-10-31T07:32:08;10.80;99.40
53748;DHT22;39655;53.210;5.768;2023-10-31T07:34:33;10.80;99.30
53748;DHT22;39655;53.210;5.768;2023-10-31T07:36:59;10.80;99.40
53748;DHT22;39655;53.210;5.768;2023-10-31T07:39:25;10.80;99.30
53748;DHT22;39655;53.210;5.768;2023-10-31T07:41:51;10.80;99.30
53748;DHT22;39655;53.210;5.768;2023-10-31T07:44:16;10.80;99.30
53748;DHT22;39655;53.210;5.768;2023-10-31T07:46:42;10.90;99.30
53748;DHT22;39655;53.210;5.768;2023-10-31T07:49:08;10.80;99.20
53748;DHT22;39655;53.210;5.768;2023-10-31T07:51:33;10.90;99.20
53748;DHT22;39655;53.210;5.768;2023-10-31T07:53:59;10.90;99.20
53748;DHT22;39655;53.210;5.768;2023-10-31T07:56:25;10.90;99.20
53748;DHT22;39655;53.210;5.768;2023-10-31T07:58:51;10.90;99.10
53748;DHT22;39655;53.210;5.768;2023-10-31T08:01:18;10.90;99.10
53748;DHT22;39655;53.210;5.768;2023-10-31T08:03:45;10.90;99.10
53748;DHT22;39655;53.210;5.768;2023-10-31T08:06:11;10.90;99.10
53748;DHT22;39655;53.210;5.768;2023-10-31T08:08:36;10.90;99.10
53748;DHT22;39655;53.210;5.768;2023-10-31T08:11:02;10.90;99.10
53748;DHT22;39655;53.210;5.768;2023-10-31T08:13:29;10.80;99.10
53748;DHT22;39655;53.210;5.768;2023-10-31T08:15:55;10.80;99.10
53748;DHT22;39655;53.210;5.768;2023-10-31T08:18:22;10.80;99.10
53748;DHT22;39655;53.210;5.768;2023-10-31T08:20:48;10.80;99.10
53748;DHT22;39655;53.210;5.768;2023-10-31T08:23:16;10.80;99.10
53748;DHT22;39655;53.210;5.768;2023-10-31T08:25:42;10.80;99.10
53748;DHT22;39655;53.210;5.768;2023-10-31T08:28:08;10.90;99.20
53748;DHT22;39655;53.210;5.768;2023-10-31T08:30:33;10.90;99.20
53748;DHT22;39655;53.210;5.768;2023-10-31T08:32:59;10.90;99.20
53748;DHT22;39655;53.210;5.768;2023-10-31T08:35:25;10.90;99.20
53748;DHT22;39655;53.210;5.768;2023-10-31T08:37:50;10.90;99.20
53748;DHT22;39655;53.210;5.768;2023-10-31T08:40:16;10.90;99.20
53748;DHT22;39655;53.210;5.768;2023-10-31T08:42:42;10.90;99.20
53748;DHT22;39655;53.210;5.768;2023-10-31T08:45:10;10.90;99.20
53748;DHT22;39655;53.210;5.768;2023-10-31T08:47:36;11.00;99.30
53748;DHT22;39655;53.210;5.768;2023-10-31T08:50:02;11.00;99.30
53748;DHT22;39655;53.210;5.768;2023-10-31T08:52:28;11.00;99.30
53748;DHT22;39655;53.210;5.768;2023-10-31T08:54:53;11.10;99.30
53748;DHT22;39655;53.210;5.768;2023-10-31T08:57:19;11.10;99.30
53748;DHT22;39655;53.210;5.768;2023-10-31T08:59:45;11.10;99.30
53748;DHT22;39655;53.210;5.768;2023-10-31T09:02:10;11.10;99.30
53748;DHT22;39655;53.210;5.768;2023-10-31T09:04:36;11.10;99.30
53748;DHT22;39655;53.210;5.768;2023-10-31T09:07:02;11.10;99.30
53748;DHT22;39655;53.210;5.768;2023-10-31T09:09:27;11.10;99.40
53748;DHT22;39655;53.210;5.768;2023-10-31T09:11:53;11.10;99.30
53748;DHT22;39655;53.210;5.768;2023-10-31T09:14:20;11.10;99.30
53748;DHT22;39655;53.210;5.768;2023-10-31T09:16:45;11.10;99.40
53748;DHT22;39655;53.210;5.768;2023-10-31T09:19:11;11.20;99.40
53748;DHT22;39655;53.210;5.768;2023-10-31T09:21:37;11.30;99.40
53748;DHT22;39655;53.210;5.768;2023-10-31T09:24:03;11.30;99.40
53748;DHT22;39655;53.210;5.768;2023-10-31T09:26:28;11.40;99.50
53748;DHT22;39655;53.210;5.768;2023-10-31T09:28:55;11.40;99.50
53748;DHT22;39655;53.210;5.768;2023-10-31T09:31:21;11.40;99.50
53748;DHT22;39655;53.210;5.768;2023-10-31T09:33:46;11.40;99.50
53748;DHT22;39655;53.210;5.768;2023-10-31T09:36:12;11.40;99.50
53748;DHT22;39655;53.210;5.768;2023-10-31T09:38:40;11.40;99.50
53748;DHT22;39655;53.210;5.768;2023-10-31T09:41:06;11.40;99.50
53748;DHT22;39655;53.210;5.768;2023-10-31T09:43:32;11.50;99.50
53748;DHT22;39655;53.210;5.768;2023-10-31T09:45:58;11.50;99.50
53748;DHT22;39655;53.210;5.768;2023-10-31T09:48:26;11.40;99.50
53748;DHT22;39655;53.210;5.768;2023-10-31T09:50:52;11.50;99.50
53748;DHT22;39655;53.210;5.768;2023-10-31T09:53:20;11.40;99.50
53748;DHT22;39655;53.210;5.768;2023-10-31T09:55:46;11.40;99.50
53748;DHT22;39655;53.210;5.768;2023-10-31T09:58:12;11.50;99.50
53748;DHT22;39655;53.210;5.768;2023-10-31T10:00:38;11.40;99.50
53748;DHT22;39655;53.210;5.768;2023-10-31T10:03:08;11.40;99.50
53748;DHT22;39655;53.210;5.768;2023-10-31T10:05:39;11.40;99.50
53748;DHT22;39655;53.210;5.768;2023-10-31T10:08:06;11.40;99.50
53748;DHT22;39655;53.210;5.768;2023-10-31T10:10:33;11.50;99.50
53748;DHT22;39655;53.210;5.768;2023-10-31T10:12:59;11.60;99.60
53748;DHT22;39655;53.210;5.768;2023-10-31T10:15:28;11.70;99.60
53748;DHT22;39655;53.210;5.768;2023-10-31T10:17:54;11.60;99.60
53748;DHT22;39655;53.210;5.768;2023-10-31T10:20:20;11.60;99.60
53748;DHT22;39655;53.210;5.768;2023-10-31T10:22:46;11.70;99.60
53748;DHT22;39655;53.210;5.768;2023-10-31T10:25:17;11.60;99.60
53748;DHT22;39655;53.210;5.768;2023-10-31T10:27:44;11.70;99.60
53748;DHT22;39655;53.210;5.768;2023-10-31T10:30:12;11.70;99.60
53748;DHT22;39655;53.210;5.768;2023-10-31T10:32:38;11.70;99.60
53748;DHT22;39655;53.210;5.768;2023-10-31T10:35:04;11.80;99.60
53748;DHT22;39655;53.210;5.768;2023-10-31T10:37:30;11.80;99.60
53748;DHT22;39655;53.210;5.768;2023-10-31T10:39:57;11.80;99.60
53748;DHT22;39655;53.210;5.768;2023-10-31T10:45:08;11.80;99.60
53748;DHT22;39655;53.210;5.768;2023-10-31T10:47:34;11.80;99.60
53748;DHT22;39655;53.210;5.768;2023-10-31T10:50:06;11.70;99.60
53748;DHT22;39655;53.210;5.768;2023-10-31T10:55:08;11.60;99.60
53748;DHT22;39655;53.210;5.768;2023-10-31T11:00:08;11.60;99.60
53748;DHT22;39655;53.210;5.768;2023-10-31T11:02:36;11.60;99.60
53748;DHT22;39655;53.210;5.768;2023-10-31T11:05:05;11.60;99.60
53748;DHT22;39655;53.210;5.768;2023-10-31T11:07:34;11.60;99.60
53748;DHT22;39655;53.210;5.768;2023-10-31T11:10:00;11.60;99.60
53748;DHT22;39655;53.210;5.768;2023-10-31T11:12:29;11.60;99.60
53748;DHT22;39655;53.210;5.768;2023-10-31T11:14:57;11.60;99.60
53748;DHT22;39655;53.210;5.768;2023-10-31T11:17:33;11.50;99.60
53748;DHT22;39655;53.210;5.768;2023-10-31T11:20:00;11.60;99.70
53748;DHT22;39655;53.210;5.768;2023-10-31T11:22:37;11.60;99.70
53748;DHT22;39655;53.210;5.768;2023-10-31T11:25:03;11.70;99.70
53748;DHT22;39655;53.210;5.768;2023-10-31T11:27:29;11.80;99.70
53748;DHT22;39655;53.210;5.768;2023-10-31T11:29:55;11.90;99.70
53748;DHT22;39655;53.210;5.768;2023-10-31T11:32:22;11.90;99.70
53748;DHT22;39655;53.210;5.768;2023-10-31T11:34:47;11.90;99.70
53748;DHT22;39655;53.210;5.768;2023-10-31T11:37:33;12.00;99.70
53748;DHT22;39655;53.210;5.768;2023-10-31T11:40:22;12.00;99.70
53748;DHT22;39655;53.210;5.768;2023-10-31T11:42:52;12.00;99.70
53748;DHT22;39655;53.210;5.768;2023-10-31T11:45:27;12.00;99.70
53748;DHT22;39655;53.210;5.768;2023-10-31T11:47:54;12.10;99.80
53748;DHT22;39655;53.210;5.768;2023-10-31T11:50:21;12.30;99.80
53748;DHT22;39655;53.210;5.768;2023-10-31T11:55:44;12.20;99.70
53748;DHT22;39655;53.210;5.768;2023-10-31T11:58:20;12.20;99.70
53748;DHT22;39655;53.210;5.768;2023-10-31T12:00:51;12.20;99.70
53748;DHT22;39655;53.210;5.768;2023-10-31T12:03:18;12.40;99.70
53748;DHT22;39655;53.210;5.768;2023-10-31T12:05:57;12.80;99.80
53748;DHT22;39655;53.210;5.768;2023-10-31T12:08:26;13.00;99.80
53748;DHT22;39655;53.210;5.768;2023-10-31T12:10:52;13.20;99.80
53748;DHT22;39655;53.210;5.768;2023-10-31T12:13:18;13.40;99.80
53748;DHT22;39655;53.210;5.768;2023-10-31T12:15:53;13.70;99.80
53748;DHT22;39655;53.210;5.768;2023-10-31T12:18:22;13.60;99.80
53748;DHT22;39655;53.210;5.768;2023-10-31T12:20:51;13.30;99.70
53748;DHT22;39655;53.210;5.768;2023-10-31T12:23:20;13.10;99.50
53748;DHT22;39655;53.210;5.768;2023-10-31T12:25:49;12.80;99.50
53748;DHT22;39655;53.210;5.768;2023-10-31T12:28:19;12.60;99.30
53748;DHT22;39655;53.210;5.768;2023-10-31T12:30:49;12.40;99.20
53748;DHT22;39655;53.210;5.768;2023-10-31T12:33:16;12.30;99.10
53748;DHT22;39655;53.210;5.768;2023-10-31T12:35:43;12.30;99.20
53748;DHT22;39655;53.210;5.768;2023-10-31T12:38:12;12.20;99.20
53748;DHT22;39655;53.210;5.768;2023-10-31T12:40:48;12.30;99.20
53748;DHT22;39655;53.210;5.768;2023-10-31T12:43:16;12.40;99.10
53748;DHT22;39655;53.210;5.768;2023-10-31T12:45:42;12.40;99.10
53748;DHT22;39655;53.210;5.768;2023-10-31T12:48:09;12.30;99.10
53748;DHT22;39655;53.210;5.768;2023-10-31T12:50:36;12.50;99.20
53748;DHT22;39655;53.210;5.768;2023-10-31T12:53:03;13.00;99.20
53748;DHT22;39655;53.210;5.768;2023-10-31T12:55:30;13.20;99.30
53748;DHT22;39655;53.210;5.768;2023-10-31T12:57:57;12.90;99.10
53748;DHT22;39655;53.210;5.768;2023-10-31T13:00:33;12.80;98.90
53748;DHT22;39655;53.210;5.768;2023-10-31T13:03:07;12.60;98.70
53748;DHT22;39655;53.210;5.768;2023-10-31T13:05:37;12.60;98.60
53748;DHT22;39655;53.210;5.768;2023-10-31T13:08:13;12.60;98.40
53748;DHT22;39655;53.210;5.768;2023-10-31T13:10:39;12.70;98.50
53748;DHT22;39655;53.210;5.768;2023-10-31T13:13:05;12.60;98.50
53748;DHT22;39655;53.210;5.768;2023-10-31T13:15:30;12.60;98.60
53748;DHT22;39655;53.210;5.768;2023-10-31T13:17:56;12.60;98.50
53748;DHT22;39655;53.210;5.768;2023-10-31T13:20:22;12.80;98.40
53748;DHT22;39655;53.210;5.768;2023-10-31T13:22:49;13.10;98.60
53748;DHT22;39655;53.210;5.768;2023-10-31T13:25:15;13.40;98.30
53748;DHT22;39655;53.210;5.768;2023-10-31T13:27:45;13.70;98.20
53748;DHT22;39655;53.210;5.768;2023-10-31T13:30:16;13.80;97.70
53748;DHT22;39655;53.210;5.768;2023-10-31T13:32:43;13.90;97.70
53748;DHT22;39655;53.210;5.768;2023-10-31T13:35:09;14.40;97.40
53748;DHT22;39655;53.210;5.768;2023-10-31T13:37:36;15.40;96.90
53748;DHT22;39655;53.210;5.768;2023-10-31T13:40:02;16.00;94.10
53748;DHT22;39655;53.210;5.768;2023-10-31T13:42:28;16.70;95.50
53748;DHT22;39655;53.210;5.768;2023-10-31T13:44:54;17.30;94.40
53748;DHT22;39655;53.210;5.768;2023-10-31T13:47:20;17.30;91.00
53748;DHT22;39655;53.210;5.768;2023-10-31T13:49:46;16.70;88.40
53748;DHT22;39655;53.210;5.768;2023-10-31T13:52:12;16.60;88.30
53748;DHT22;39655;53.210;5.768;2023-10-31T13:54:37;16.40;87.90
53748;DHT22;39655;53.210;5.768;2023-10-31T13:57:03;16.30;88.30
53748;DHT22;39655;53.210;5.768;2023-10-31T13:59:29;16.20;87.70
53748;DHT22;39655;53.210;5.768;2023-10-31T14:01:54;16.40;88.10
53748;DHT22;39655;53.210;5.768;2023-10-31T14:04:20;16.60;83.70
53748;DHT22;39655;53.210;5.768;2023-10-31T14:06:46;16.50;77.20
53748;DHT22;39655;53.210;5.768;2023-10-31T14:09:12;16.40;84.20
53748;DHT22;39655;53.210;5.768;2023-10-31T14:11:41;16.00;88.00
53748;DHT22;39655;53.210;5.768;2023-10-31T14:14:07;15.40;87.70
53748;DHT22;39655;53.210;5.768;2023-10-31T14:16:42;14.90;89.70
53748;DHT22;39655;53.210;5.768;2023-10-31T14:19:11;14.30;90.40
53748;DHT22;39655;53.210;5.768;2023-10-31T14:21:37;14.00;92.40
53748;DHT22;39655;53.210;5.768;2023-10-31T14:24:03;13.70;91.60
53748;DHT22;39655;53.210;5.768;2023-10-31T14:26:29;13.50;92.80
53748;DHT22;39655;53.210;5.768;2023-10-31T14:28:58;13.10;91.10
53748;DHT22;39655;53.210;5.768;2023-10-31T14:31:24;12.80;90.10
53748;DHT22;39655;53.210;5.768;2023-10-31T14:33:52;12.60;90.40
53748;DHT22;39655;53.210;5.768;2023-10-31T14:36:18;12.40;90.40
53748;DHT22;39655;53.210;5.768;2023-10-31T14:38:43;12.30;90.70
53748;DHT22;39655;53.210;5.768;2023-10-31T14:41:09;12.20;91.30
53748;DHT22;39655;53.210;5.768;2023-10-31T14:43:35;12.10;91.50
53748;DHT22;39655;53.210;5.768;2023-10-31T14:46:01;12.00;92.30
53748;DHT22;39655;53.210;5.768;2023-10-31T14:48:27;12.00;92.50
53748;DHT22;39655;53.210;5.768;2023-10-31T14:50:54;11.90;92.70
53748;DHT22;39655;53.210;5.768;2023-10-31T14:53:19;11.90;93.50
53748;DHT22;39655;53.210;5.768;2023-10-31T14:55:46;11.90;93.80
53748;DHT22;39655;53.210;5.768;2023-10-31T14:58:12;11.70;94.10
53748;DHT22;39655;53.210;5.768;2023-10-31T15:00:38;11.70;94.00
53748;DHT22;39655;53.210;5.768;2023-10-31T15:03:04;11.70;94.40
53748;DHT22;39655;53.210;5.768;2023-10-31T15:05:30;11.70;94.60
53748;DHT22;39655;53.210;5.768;2023-10-31T15:07:56;11.60;94.60
53748;DHT22;39655;53.210;5.768;2023-10-31T15:10:25;11.60;94.60
53748;DHT22;39655;53.210;5.768;2023-10-31T15:12:54;11.60;94.70
53748;DHT22;39655;53.210;5.768;2023-10-31T15:15:20;11.60;95.00
53748;DHT22;39655;53.210;5.768;2023-10-31T15:17:45;11.60;95.10
53748;DHT22;39655;53.210;5.768;2023-10-31T15:20:13;11.60;95.00
53748;DHT22;39655;53.210;5.768;2023-10-31T15:22:40;11.50;94.90
53748;DHT22;39655;53.210;5.768;2023-10-31T15:25:06;11.50;95.00
53748;DHT22;39655;53.210;5.768;2023-10-31T15:27:31;11.40;94.80
53748;DHT22;39655;53.210;5.768;2023-10-31T15:29:57;11.40;94.70
53748;DHT22;39655;53.210;5.768;2023-10-31T15:32:23;11.20;94.60
53748;DHT22;39655;53.210;5.768;2023-10-31T15:34:48;11.10;94.50
53748;DHT22;39655;53.210;5.768;2023-10-31T15:37:14;11.10;94.60